sensor_id;sensor_type;location;lat;lon;timestamp;P1;durP1;ratioP1;P2;durP2;ratioP2
4692;SDS011;11710;48.024;16.296;2022-07-06T00:02:25;9.87;;;8.97;;
4692;SDS011;11710;48.024;16.296;2022-07-06T00:04:52;8.50;;;7.70;;
4692;SDS011;11710;48.024;16.296;2022-07-06T00:07:20;13.07;;;9.87;;
4692;SDS011;11710;48.024;16.296;2022-07-06T00:09:47;20.47;;;12.00;;
4692;SDS011;11710;48.024;16.296;2022-07-06T00:12:14;19.80;;;12.53;;
4692;SDS011;11710;48.024;16.296;2022-07-06T00:14:41;23.33;;;13.30;;
4692;SDS011;11710;48.024;16.296;2022-07-06T00:17:08;20.93;;;12.00;;
4692;SDS011;11710;48.024;16.296;2022-07-06T00:19:35;13.70;;;10.00;;
4692;SDS011;11710;48.024;16.296;2022-07-06T00:22:02;11.60;;;8.73;;
4692;SDS011;11710;48.024;16.296;2022-07-06T00:24:31;18.87;;;11.17;;
4692;SDS011;11710;48.024;16.296;2022-07-06T00:26:57;13.27;;;10.80;;
4692;SDS011;11710;48.024;16.296;2022-07-06T00:29:24;14.67;;;11.17;;
4692;SDS011;11710;48.024;16.296;2022-07-06T00:31:51;14.70;;;10.43;;
4692;SDS011;11710;48.024;16.296;2022-07-06T00:34:18;11.23;;;9.70;;
4692;SDS011;11710;48.024;16.296;2022-07-06T00:36:45;11.97;;;10.77;;
4692;SDS011;11710;48.024;16.296;2022-07-06T00:39:12;12.70;;;11.17;;
4692;SDS011;11710;48.024;16.296;2022-07-06T00:41:40;14.07;;;11.53;;
4692;SDS011;11710;48.024;16.296;2022-07-06T00:44:07;12.50;;;11.13;;
4692;SDS011;11710;48.024;16.296;2022-07-06T00:46:35;11.70;;;10.60;;
4692;SDS011;11710;48.024;16.296;2022-07-06T00:49:02;13.73;;;12.23;;
4692;SDS011;11710;48.024;16.296;2022-07-06T00:51:30;10.97;;;9.97;;
4692;SDS011;11710;48.024;16.296;2022-07-06T00:53:59;11.77;;;10.10;;
4692;SDS011;11710;48.024;16.296;2022-07-06T00:56:29;13.40;;;11.83;;
4692;SDS011;11710;48.024;16.296;2022-07-06T00:58:58;12.87;;;11.47;;
4692;SDS011;11710;48.024;16.296;2022-07-06T01:01:27;13.80;;;11.10;;
4692;SDS011;11710;48.024;16.296;2022-07-06T01:03:54;13.00;;;11.17;;
4692;SDS011;11710;48.024;16.296;2022-07-06T01:06:20;13.60;;;11.40;;
4692;SDS011;11710;48.024;16.296;2022-07-06T01:08:47;16.23;;;12.30;;
4692;SDS011;11710;48.024;16.296;2022-07-06T01:11:15;18.07;;;12.63;;
4692;SDS011;11710;48.024;16.296;2022-07-06T01:13:44;17.73;;;12.57;;
4692;SDS011;11710;48.024;16.296;2022-07-06T01:16:13;19.43;;;13.53;;
4692;SDS011;11710;48.024;16.296;2022-07-06T01:18:40;15.10;;;11.53;;
4692;SDS011;11710;48.024;16.296;2022-07-06T01:21:10;11.10;;;10.00;;
4692;SDS011;11710;48.024;16.296;2022-07-06T01:23:41;10.20;;;9.20;;
4692;SDS011;11710;48.024;16.296;2022-07-06T01:26:10;11.43;;;10.33;;
4692;SDS011;11710;48.024;16.296;2022-07-06T01:28:38;10.70;;;9.60;;
4692;SDS011;11710;48.024;16.296;2022-07-06T01:31:05;10.90;;;9.90;;
4692;SDS011;11710;48.024;16.296;2022-07-06T01:33:32;11.07;;;9.80;;
4692;SDS011;11710;48.024;16.296;2022-07-06T01:35:58;11.40;;;10.20;;
4692;SDS011;11710;48.024;16.296;2022-07-06T01:38:27;16.23;;;12.13;;
4692;SDS011;11710;48.024;16.296;2022-07-06T01:40:54;14.70;;;11.07;;
4692;SDS011;11710;48.024;16.296;2022-07-06T01:43:21;12.80;;;10.33;;
4692;SDS011;11710;48.024;16.296;2022-07-06T01:45:48;11.47;;;9.60;;
4692;SDS011;11710;48.024;16.296;2022-07-06T01:48:15;10.03;;;9.00;;
4692;SDS011;11710;48.024;16.296;2022-07-06T01:50:41;8.97;;;8.10;;
4692;SDS011;11710;48.024;16.296;2022-07-06T01:53:08;8.03;;;7.33;;
4692;SDS011;11710;48.024;16.296;2022-07-06T01:55:37;9.10;;;7.53;;
4692;SDS011;11710;48.024;16.296;2022-07-06T01:58:04;9.30;;;7.80;;
4692;SDS011;11710;48.024;16.296;2022-07-06T02:00:31;7.23;;;6.67;;
4692;SDS011;11710;48.024;16.296;2022-07-06T02:02:58;7.77;;;7.07;;
4692;SDS011;11710;48.024;16.296;2022-07-06T02:05:24;9.40;;;8.13;;
4692;SDS011;11710;48.024;16.296;2022-07-06T02:07:51;9.73;;;8.73;;
4692;SDS011;11710;48.024;16.296;2022-07-06T02:10:18;16.43;;;10.40;;
4692;SDS011;11710;48.024;16.296;2022-07-06T02:12:46;16.33;;;11.03;;
4692;SDS011;11710;48.024;16.296;2022-07-06T02:15:13;15.37;;;10.50;;
4692;SDS011;11710;48.024;16.296;2022-07-06T02:17:40;12.10;;;10.07;;
4692;SDS011;11710;48.024;16.296;2022-07-06T02:20:07;9.67;;;8.70;;
4692;SDS011;11710;48.024;16.296;2022-07-06T02:22:35;10.27;;;9.33;;
4692;SDS011;11710;48.024;16.296;2022-07-06T02:25:02;10.63;;;9.63;;
4692;SDS011;11710;48.024;16.296;2022-07-06T02:27:29;10.00;;;9.10;;
4692;SDS011;11710;48.024;16.296;2022-07-06T02:29:58;10.30;;;9.07;;
4692;SDS011;11710;48.024;16.296;2022-07-06T02:32:25;9.37;;;8.23;;
4692;SDS011;11710;48.024;16.296;2022-07-06T02:34:52;9.57;;;8.73;;
4692;SDS011;11710;48.024;16.296;2022-07-06T02:37:18;8.87;;;8.07;;
4692;SDS011;11710;48.024;16.296;2022-07-06T02:39:45;9.50;;;8.60;;
4692;SDS011;11710;48.024;16.296;2022-07-06T02:42:12;9.20;;;8.30;;
4692;SDS011;11710;48.024;16.296;2022-07-06T02:44:39;8.60;;;7.70;;
4692;SDS011;11710;48.024;16.296;2022-07-06T02:47:08;9.20;;;8.30;;
4692;SDS011;11710;48.024;16.296;2022-07-06T02:49:35;10.00;;;8.90;;
4692;SDS011;11710;48.024;16.296;2022-07-06T02:52:02;9.67;;;8.57;;
4692;SDS011;11710;48.024;16.296;2022-07-06T02:54:29;10.40;;;8.77;;
4692;SDS011;11710;48.024;16.296;2022-07-06T02:56:56;12.40;;;10.27;;
4692;SDS011;11710;48.024;16.296;2022-07-06T02:59:23;15.00;;;9.57;;
4692;SDS011;11710;48.024;16.296;2022-07-06T03:01:49;16.27;;;10.47;;
4692;SDS011;11710;48.024;16.296;2022-07-06T03:04:18;16.60;;;10.33;;
4692;SDS011;11710;48.024;16.296;2022-07-06T03:06:45;9.23;;;8.20;;
4692;SDS011;11710;48.024;16.296;2022-07-06T03:09:11;9.27;;;8.33;;
4692;SDS011;11710;48.024;16.296;2022-07-06T03:11:39;8.43;;;7.73;;
4692;SDS011;11710;48.024;16.296;2022-07-06T03:14:06;7.87;;;7.10;;
4692;SDS011;11710;48.024;16.296;2022-07-06T03:16:32;8.47;;;7.40;;
4692;SDS011;11710;48.024;16.296;2022-07-06T03:18:59;8.43;;;7.63;;
4692;SDS011;11710;48.024;16.296;2022-07-06T03:21:28;8.37;;;7.57;;
4692;SDS011;11710;48.024;16.296;2022-07-06T03:23:54;8.30;;;7.50;;
4692;SDS011;11710;48.024;16.296;2022-07-06T03:26:21;8.37;;;7.57;;
4692;SDS011;11710;48.024;16.296;2022-07-06T03:28:48;8.43;;;7.60;;
4692;SDS011;11710;48.024;16.296;2022-07-06T03:31:15;9.43;;;8.43;;
4692;SDS011;11710;48.024;16.296;2022-07-06T03:33:42;8.43;;;7.73;;
4692;SDS011;11710;48.024;16.296;2022-07-06T03:36:09;8.40;;;7.60;;
4692;SDS011;11710;48.024;16.296;2022-07-06T03:38:37;8.30;;;7.60;;
4692;SDS011;11710;48.024;16.296;2022-07-06T03:41:04;8.20;;;7.47;;
4692;SDS011;11710;48.024;16.296;2022-07-06T03:43:31;8.07;;;7.37;;
4692;SDS011;11710;48.024;16.296;2022-07-06T03:45:58;7.53;;;6.73;;
4692;SDS011;11710;48.024;16.296;2022-07-06T03:48:25;8.50;;;7.70;;
4692;SDS011;11710;48.024;16.296;2022-07-06T03:50:52;9.10;;;8.20;;
4692;SDS011;11710;48.024;16.296;2022-07-06T03:53:20;7.57;;;6.97;;
4692;SDS011;11710;48.024;16.296;2022-07-06T03:55:48;9.77;;;7.50;;
4692;SDS011;11710;48.024;16.296;2022-07-06T03:58:29;8.67;;;7.87;;
4692;SDS011;11710;48.024;16.296;2022-07-06T04:00:56;7.70;;;7.00;;
4692;SDS011;11710;48.024;16.296;2022-07-06T04:03:23;7.57;;;6.87;;
4692;SDS011;11710;48.024;16.296;2022-07-06T04:05:50;8.00;;;7.30;;
4692;SDS011;11710;48.024;16.296;2022-07-06T04:08:17;6.67;;;6.17;;
4692;SDS011;11710;48.024;16.296;2022-07-06T04:10:44;6.67;;;6.17;;
4692;SDS011;11710;48.024;16.296;2022-07-06T04:13:13;6.73;;;6.23;;
4692;SDS011;11710;48.024;16.296;2022-07-06T04:15:39;6.77;;;6.27;;
4692;SDS011;11710;48.024;16.296;2022-07-06T04:18:06;6.73;;;6.20;;
4692;SDS011;11710;48.024;16.296;2022-07-06T04:20:33;6.63;;;6.17;;
4692;SDS011;11710;48.024;16.296;2022-07-06T04:23:00;6.70;;;6.20;;
4692;SDS011;11710;48.024;16.296;2022-07-06T04:25:27;7.07;;;6.57;;
4692;SDS011;11710;48.024;16.296;2022-07-06T04:27:54;7.07;;;6.57;;
4692;SDS011;11710;48.024;16.296;2022-07-06T04:30:22;6.90;;;6.30;;
4692;SDS011;11710;48.024;16.296;2022-07-06T04:32:50;7.13;;;6.43;;
4692;SDS011;11710;48.024;16.296;2022-07-06T04:35:16;8.10;;;6.47;;
4692;SDS011;11710;48.024;16.296;2022-07-06T04:37:44;6.90;;;6.23;;
4692;SDS011;11710;48.024;16.296;2022-07-06T04:40:12;7.00;;;6.50;;
4692;SDS011;11710;48.024;16.296;2022-07-06T04:42:39;6.90;;;6.30;;
4692;SDS011;11710;48.024;16.296;2022-07-06T04:45:07;7.20;;;6.70;;
4692;SDS011;11710;48.024;16.296;2022-07-06T04:47:37;6.93;;;6.43;;
4692;SDS011;11710;48.024;16.296;2022-07-06T04:50:04;7.13;;;6.63;;
4692;SDS011;11710;48.024;16.296;2022-07-06T04:52:31;7.50;;;6.90;;
4692;SDS011;11710;48.024;16.296;2022-07-06T04:54:58;7.83;;;7.13;;
4692;SDS011;11710;48.024;16.296;2022-07-06T04:57:25;9.00;;;6.50;;
4692;SDS011;11710;48.024;16.296;2022-07-06T04:59:54;8.13;;;7.43;;
4692;SDS011;11710;48.024;16.296;2022-07-06T05:02:21;7.87;;;7.27;;
4692;SDS011;11710;48.024;16.296;2022-07-06T05:04:50;8.67;;;7.77;;
4692;SDS011;11710;48.024;16.296;2022-07-06T05:07:17;7.50;;;6.90;;
4692;SDS011;11710;48.024;16.296;2022-07-06T05:09:45;8.00;;;7.40;;
4692;SDS011;11710;48.024;16.296;2022-07-06T05:12:12;8.40;;;7.70;;
4692;SDS011;11710;48.024;16.296;2022-07-06T05:14:39;8.33;;;7.67;;
4692;SDS011;11710;48.024;16.296;2022-07-06T05:17:06;9.60;;;7.60;;
4692;SDS011;11710;48.024;16.296;2022-07-06T05:19:33;8.07;;;7.40;;
4692;SDS011;11710;48.024;16.296;2022-07-06T05:22:01;7.93;;;7.33;;
4692;SDS011;11710;48.024;16.296;2022-07-06T05:24:28;7.73;;;7.03;;
4692;SDS011;11710;48.024;16.296;2022-07-06T05:26:55;8.40;;;7.70;;
4692;SDS011;11710;48.024;16.296;2022-07-06T05:29:22;8.17;;;7.47;;
4692;SDS011;11710;48.024;16.296;2022-07-06T05:31:49;9.27;;;6.70;;
4692;SDS011;11710;48.024;16.296;2022-07-06T05:34:16;7.70;;;6.90;;
4692;SDS011;11710;48.024;16.296;2022-07-06T05:36:43;8.10;;;7.40;;
4692;SDS011;11710;48.024;16.296;2022-07-06T05:39:11;7.67;;;6.97;;
4692;SDS011;11710;48.024;16.296;2022-07-06T05:41:38;8.50;;;7.80;;
4692;SDS011;11710;48.024;16.296;2022-07-06T05:44:05;8.00;;;7.20;;
4692;SDS011;11710;48.024;16.296;2022-07-06T05:46:32;8.87;;;7.57;;
4692;SDS011;11710;48.024;16.296;2022-07-06T05:48:58;8.10;;;7.40;;
4692;SDS011;11710;48.024;16.296;2022-07-06T05:51:43;7.77;;;7.17;;
4692;SDS011;11710;48.024;16.296;2022-07-06T05:54:11;8.37;;;7.47;;
4692;SDS011;11710;48.024;16.296;2022-07-06T05:56:38;8.17;;;7.47;;
4692;SDS011;11710;48.024;16.296;2022-07-06T05:59:05;7.47;;;6.87;;
4692;SDS011;11710;48.024;16.296;2022-07-06T06:01:32;8.00;;;7.30;;
4692;SDS011;11710;48.024;16.296;2022-07-06T06:03:59;8.20;;;7.40;;
4692;SDS011;11710;48.024;16.296;2022-07-06T06:06:26;7.40;;;6.80;;
4692;SDS011;11710;48.024;16.296;2022-07-06T06:08:53;7.40;;;6.70;;
4692;SDS011;11710;48.024;16.296;2022-07-06T06:11:21;7.60;;;7.00;;
4692;SDS011;11710;48.024;16.296;2022-07-06T06:13:48;7.10;;;6.50;;
4692;SDS011;11710;48.024;16.296;2022-07-06T06:16:15;6.90;;;6.40;;
4692;SDS011;11710;48.024;16.296;2022-07-06T06:18:42;6.43;;;5.93;;
4692;SDS011;11710;48.024;16.296;2022-07-06T06:21:09;6.80;;;6.20;;
4692;SDS011;11710;48.024;16.296;2022-07-06T06:23:36;6.73;;;6.20;;
4692;SDS011;11710;48.024;16.296;2022-07-06T06:26:04;8.43;;;6.43;;
4692;SDS011;11710;48.024;16.296;2022-07-06T06:28:32;6.27;;;5.77;;
4692;SDS011;11710;48.024;16.296;2022-07-06T06:31:00;5.60;;;5.20;;
4692;SDS011;11710;48.024;16.296;2022-07-06T06:33:27;6.50;;;5.93;;
4692;SDS011;11710;48.024;16.296;2022-07-06T06:35:53;5.33;;;4.93;;
4692;SDS011;11710;48.024;16.296;2022-07-06T06:38:21;5.33;;;4.93;;
4692;SDS011;11710;48.024;16.296;2022-07-06T06:40:50;4.97;;;4.67;;
4692;SDS011;11710;48.024;16.296;2022-07-06T06:43:18;5.03;;;4.63;;
4692;SDS011;11710;48.024;16.296;2022-07-06T06:45:46;4.80;;;4.40;;
4692;SDS011;11710;48.024;16.296;2022-07-06T06:48:13;8.20;;;5.60;;
4692;SDS011;11710;48.024;16.296;2022-07-06T06:50:40;5.30;;;4.90;;
4692;SDS011;11710;48.024;16.296;2022-07-06T06:53:07;4.97;;;4.67;;
4692;SDS011;11710;48.024;16.296;2022-07-06T06:55:34;5.90;;;5.27;;
4692;SDS011;11710;48.024;16.296;2022-07-06T06:58:01;5.33;;;4.93;;
4692;SDS011;11710;48.024;16.296;2022-07-06T07:00:27;6.20;;;4.90;;
4692;SDS011;11710;48.024;16.296;2022-07-06T07:02:56;5.30;;;4.90;;
4692;SDS011;11710;48.024;16.296;2022-07-06T07:05:23;5.60;;;5.10;;
4692;SDS011;11710;48.024;16.296;2022-07-06T07:07:49;6.07;;;5.50;;
4692;SDS011;11710;48.024;16.296;2022-07-06T07:10:16;6.27;;;5.20;;
4692;SDS011;11710;48.024;16.296;2022-07-06T07:12:44;6.30;;;5.13;;
4692;SDS011;11710;48.024;16.296;2022-07-06T07:15:11;5.20;;;4.70;;
4692;SDS011;11710;48.024;16.296;2022-07-06T07:17:39;5.53;;;5.13;;
4692;SDS011;11710;48.024;16.296;2022-07-06T07:20:08;5.87;;;5.27;;
4692;SDS011;11710;48.024;16.296;2022-07-06T07:22:35;5.57;;;5.07;;
4692;SDS011;11710;48.024;16.296;2022-07-06T07:25:02;5.00;;;4.63;;
4692;SDS011;11710;48.024;16.296;2022-07-06T07:27:30;5.53;;;5.13;;
4692;SDS011;11710;48.024;16.296;2022-07-06T07:29:57;7.20;;;5.40;;
4692;SDS011;11710;48.024;16.296;2022-07-06T07:32:24;5.53;;;5.00;;
4692;SDS011;11710;48.024;16.296;2022-07-06T07:34:51;5.60;;;5.10;;
4692;SDS011;11710;48.024;16.296;2022-07-06T07:37:19;7.43;;;6.63;;
4692;SDS011;11710;48.024;16.296;2022-07-06T07:39:46;7.47;;;6.70;;
4692;SDS011;11710;48.024;16.296;2022-07-06T07:42:12;5.80;;;5.40;;
4692;SDS011;11710;48.024;16.296;2022-07-06T07:44:40;5.33;;;4.93;;
4692;SDS011;11710;48.024;16.296;2022-07-06T07:47:06;7.90;;;5.60;;
4692;SDS011;11710;48.024;16.296;2022-07-06T07:49:33;8.73;;;6.30;;
4692;SDS011;11710;48.024;16.296;2022-07-06T07:52:00;7.73;;;6.00;;
4692;SDS011;11710;48.024;16.296;2022-07-06T07:54:29;6.20;;;5.60;;
4692;SDS011;11710;48.024;16.296;2022-07-06T07:56:55;6.60;;;5.37;;
4692;SDS011;11710;48.024;16.296;2022-07-06T07:59:22;7.37;;;6.50;;
4692;SDS011;11710;48.024;16.296;2022-07-06T08:01:49;5.50;;;5.00;;
4692;SDS011;11710;48.024;16.296;2022-07-06T08:04:16;5.43;;;5.03;;
4692;SDS011;11710;48.024;16.296;2022-07-06T08:06:43;5.13;;;4.73;;
4692;SDS011;11710;48.024;16.296;2022-07-06T08:09:10;5.23;;;4.83;;
4692;SDS011;11710;48.024;16.296;2022-07-06T08:11:39;5.43;;;5.00;;
4692;SDS011;11710;48.024;16.296;2022-07-06T08:14:05;5.80;;;5.30;;
4692;SDS011;11710;48.024;16.296;2022-07-06T08:16:32;5.30;;;4.90;;
4692;SDS011;11710;48.024;16.296;2022-07-06T08:18:59;5.57;;;5.07;;
4692;SDS011;11710;48.024;16.296;2022-07-06T08:21:26;5.90;;;5.50;;
4692;SDS011;11710;48.024;16.296;2022-07-06T08:23:53;5.90;;;5.50;;
4692;SDS011;11710;48.024;16.296;2022-07-06T08:26:21;6.13;;;5.63;;
4692;SDS011;11710;48.024;16.296;2022-07-06T08:28:50;5.63;;;5.23;;
4692;SDS011;11710;48.024;16.296;2022-07-06T08:31:17;5.80;;;5.40;;
4692;SDS011;11710;48.024;16.296;2022-07-06T08:33:44;6.20;;;5.70;;
4692;SDS011;11710;48.024;16.296;2022-07-06T08:36:11;5.30;;;4.90;;
4692;SDS011;11710;48.024;16.296;2022-07-06T08:38:47;5.83;;;5.30;;
4692;SDS011;11710;48.024;16.296;2022-07-06T08:41:15;5.57;;;5.07;;
4692;SDS011;11710;48.024;16.296;2022-07-06T08:43:47;5.83;;;5.40;;
4692;SDS011;11710;48.024;16.296;2022-07-06T08:46:15;5.63;;;5.23;;
4692;SDS011;11710;48.024;16.296;2022-07-06T08:48:43;5.40;;;5.00;;
4692;SDS011;11710;48.024;16.296;2022-07-06T08:51:11;5.10;;;4.70;;
4692;SDS011;11710;48.024;16.296;2022-07-06T08:53:40;8.50;;;5.73;;
4692;SDS011;11710;48.024;16.296;2022-07-06T08:56:08;6.90;;;6.30;;
4692;SDS011;11710;48.024;16.296;2022-07-06T08:58:35;8.77;;;6.20;;
4692;SDS011;11710;48.024;16.296;2022-07-06T09:01:06;6.77;;;5.73;;
4692;SDS011;11710;48.024;16.296;2022-07-06T09:03:36;6.07;;;5.50;;
4692;SDS011;11710;48.024;16.296;2022-07-06T09:06:04;5.73;;;5.33;;
4692;SDS011;11710;48.024;16.296;2022-07-06T09:08:33;5.60;;;5.20;;
4692;SDS011;11710;48.024;16.296;2022-07-06T09:11:01;5.73;;;5.13;;
4692;SDS011;11710;48.024;16.296;2022-07-06T09:13:28;7.90;;;6.30;;
4692;SDS011;11710;48.024;16.296;2022-07-06T09:15:55;6.40;;;5.43;;
4692;SDS011;11710;48.024;16.296;2022-07-06T09:21:55;7.33;;;5.67;;
4692;SDS011;11710;48.024;16.296;2022-07-06T09:24:25;10.20;;;6.53;;
4692;SDS011;11710;48.024;16.296;2022-07-06T09:27:01;7.60;;;6.80;;
4692;SDS011;11710;48.024;16.296;2022-07-06T09:29:30;5.83;;;5.40;;
4692;SDS011;11710;48.024;16.296;2022-07-06T09:31:58;5.70;;;5.20;;
4692;SDS011;11710;48.024;16.296;2022-07-06T09:34:26;6.10;;;5.60;;
4692;SDS011;11710;48.024;16.296;2022-07-06T09:37:23;6.53;;;6.00;;
4692;SDS011;11710;48.024;16.296;2022-07-06T09:55:35;6.57;;;5.97;;
4692;SDS011;11710;48.024;16.296;2022-07-06T09:58:02;5.90;;;5.37;;
4692;SDS011;11710;48.024;16.296;2022-07-06T10:00:33;6.27;;;5.77;;
4692;SDS011;11710;48.024;16.296;2022-07-06T10:03:01;6.40;;;5.90;;
4692;SDS011;11710;48.024;16.296;2022-07-06T10:05:28;6.10;;;5.70;;
4692;SDS011;11710;48.024;16.296;2022-07-06T10:07:57;6.10;;;5.60;;
4692;SDS011;11710;48.024;16.296;2022-07-06T10:10:27;6.10;;;5.70;;
4692;SDS011;11710;48.024;16.296;2022-07-06T10:12:58;6.00;;;5.60;;
4692;SDS011;11710;48.024;16.296;2022-07-06T10:15:27;7.10;;;6.33;;
4692;SDS011;11710;48.024;16.296;2022-07-06T10:18:09;6.43;;;5.90;;
4692;SDS011;11710;48.024;16.296;2022-07-06T10:20:37;6.70;;;6.20;;
4692;SDS011;11710;48.024;16.296;2022-07-06T10:23:06;6.17;;;5.77;;
4692;SDS011;11710;48.024;16.296;2022-07-06T10:25:34;6.40;;;5.90;;
4692;SDS011;11710;48.024;16.296;2022-07-06T10:28:03;7.00;;;6.40;;
4692;SDS011;11710;48.024;16.296;2022-07-06T10:30:38;7.10;;;6.50;;
4692;SDS011;11710;48.024;16.296;2022-07-06T10:33:13;7.00;;;6.30;;
4692;SDS011;11710;48.024;16.296;2022-07-06T10:35:43;7.23;;;6.57;;
4692;SDS011;11710;48.024;16.296;2022-07-06T10:38:11;6.30;;;5.70;;
4692;SDS011;11710;48.024;16.296;2022-07-06T10:40:40;8.23;;;7.53;;
4692;SDS011;11710;48.024;16.296;2022-07-06T10:43:32;7.90;;;6.27;;
4692;SDS011;11710;48.024;16.296;2022-07-06T10:46:05;9.90;;;7.90;;
4692;SDS011;11710;48.024;16.296;2022-07-06T10:48:37;8.00;;;7.20;;
4692;SDS011;11710;48.024;16.296;2022-07-06T10:51:04;8.47;;;7.77;;
4692;SDS011;11710;48.024;16.296;2022-07-06T10:53:32;8.17;;;7.37;;
4692;SDS011;11710;48.024;16.296;2022-07-06T10:56:02;7.30;;;6.70;;
4692;SDS011;11710;48.024;16.296;2022-07-06T10:58:40;7.27;;;6.60;;
4692;SDS011;11710;48.024;16.296;2022-07-06T11:01:13;8.80;;;6.50;;
4692;SDS011;11710;48.024;16.296;2022-07-06T11:03:41;8.73;;;6.83;;
4692;SDS011;11710;48.024;16.296;2022-07-06T11:06:09;6.57;;;5.90;;
4692;SDS011;11710;48.024;16.296;2022-07-06T11:08:54;7.20;;;6.50;;
4692;SDS011;11710;48.024;16.296;2022-07-06T11:11:23;6.97;;;6.43;;
4692;SDS011;11710;48.024;16.296;2022-07-06T11:14:07;7.50;;;6.80;;
4692;SDS011;11710;48.024;16.296;2022-07-06T11:16:36;7.23;;;5.87;;
4692;SDS011;11710;48.024;16.296;2022-07-06T11:19:08;7.27;;;6.67;;
4692;SDS011;11710;48.024;16.296;2022-07-06T11:21:37;6.37;;;5.70;;
4692;SDS011;11710;48.024;16.296;2022-07-06T11:24:09;6.30;;;5.80;;
4692;SDS011;11710;48.024;16.296;2022-07-06T11:26:38;7.10;;;6.40;;
4692;SDS011;11710;48.024;16.296;2022-07-06T11:29:09;5.97;;;5.47;;
4692;SDS011;11710;48.024;16.296;2022-07-06T11:31:37;6.10;;;5.50;;
4692;SDS011;11710;48.024;16.296;2022-07-06T11:34:06;5.93;;;5.43;;
4692;SDS011;11710;48.024;16.296;2022-07-06T11:36:34;5.10;;;4.60;;
4692;SDS011;11710;48.024;16.296;2022-07-06T11:39:03;4.40;;;4.00;;
4692;SDS011;11710;48.024;16.296;2022-07-06T11:41:31;4.40;;;4.10;;
4692;SDS011;11710;48.024;16.296;2022-07-06T11:43:58;5.17;;;4.77;;
4692;SDS011;11710;48.024;16.296;2022-07-06T11:46:28;4.80;;;4.40;;
4692;SDS011;11710;48.024;16.296;2022-07-06T11:48:56;5.27;;;4.80;;
4692;SDS011;11710;48.024;16.296;2022-07-06T11:51:24;5.60;;;5.10;;
4692;SDS011;11710;48.024;16.296;2022-07-06T11:54:00;5.20;;;4.80;;
4692;SDS011;11710;48.024;16.296;2022-07-06T11:56:28;5.27;;;4.87;;
4692;SDS011;11710;48.024;16.296;2022-07-06T11:58:57;6.40;;;5.80;;
4692;SDS011;11710;48.024;16.296;2022-07-06T12:01:25;6.73;;;6.10;;
4692;SDS011;11710;48.024;16.296;2022-07-06T12:03:56;5.77;;;5.27;;
4692;SDS011;11710;48.024;16.296;2022-07-06T12:06:24;6.30;;;5.50;;
4692;SDS011;11710;48.024;16.296;2022-07-06T12:08:57;5.50;;;5.10;;
4692;SDS011;11710;48.024;16.296;2022-07-06T12:11:26;6.73;;;6.13;;
4692;SDS011;11710;48.024;16.296;2022-07-06T12:13:54;7.33;;;5.77;;
4692;SDS011;11710;48.024;16.296;2022-07-06T12:16:28;6.30;;;5.80;;
4692;SDS011;11710;48.024;16.296;2022-07-06T12:18:58;5.90;;;5.40;;
4692;SDS011;11710;48.024;16.296;2022-07-06T12:21:25;5.70;;;5.30;;
4692;SDS011;11710;48.024;16.296;2022-07-06T12:23:52;6.33;;;5.73;;
4692;SDS011;11710;48.024;16.296;2022-07-06T12:26:21;7.30;;;6.60;;
4692;SDS011;11710;48.024;16.296;2022-07-06T12:29:00;6.23;;;5.73;;
4692;SDS011;11710;48.024;16.296;2022-07-06T12:31:31;6.20;;;5.60;;
4692;SDS011;11710;48.024;16.296;2022-07-06T12:34:00;6.30;;;5.80;;
4692;SDS011;11710;48.024;16.296;2022-07-06T12:36:27;6.87;;;6.17;;
4692;SDS011;11710;48.024;16.296;2022-07-06T12:38:54;5.90;;;5.40;;
4692;SDS011;11710;48.024;16.296;2022-07-06T12:41:29;5.90;;;5.50;;
4692;SDS011;11710;48.024;16.296;2022-07-06T12:46:45;6.40;;;5.50;;
4692;SDS011;11710;48.024;16.296;2022-07-06T12:49:15;7.10;;;5.80;;
4692;SDS011;11710;48.024;16.296;2022-07-06T12:51:48;5.47;;;5.07;;
4692;SDS011;11710;48.024;16.296;2022-07-06T12:54:16;5.50;;;5.10;;
4692;SDS011;11710;48.024;16.296;2022-07-06T12:57:06;6.00;;;5.10;;
4692;SDS011;11710;48.024;16.296;2022-07-06T12:59:36;5.70;;;5.30;;
4692;SDS011;11710;48.024;16.296;2022-07-06T13:02:08;5.90;;;5.40;;
4692;SDS011;11710;48.024;16.296;2022-07-06T13:04:37;5.70;;;5.17;;
4692;SDS011;11710;48.024;16.296;2022-07-06T13:07:04;6.33;;;5.80;;
4692;SDS011;11710;48.024;16.296;2022-07-06T13:09:31;5.17;;;4.80;;
4692;SDS011;11710;48.024;16.296;2022-07-06T13:11:59;6.40;;;5.00;;
4692;SDS011;11710;48.024;16.296;2022-07-06T13:14:26;5.97;;;5.47;;
4692;SDS011;11710;48.024;16.296;2022-07-06T13:16:53;5.60;;;5.20;;
4692;SDS011;11710;48.024;16.296;2022-07-06T13:19:20;5.67;;;5.17;;
4692;SDS011;11710;48.024;16.296;2022-07-06T13:21:48;5.67;;;5.27;;
4692;SDS011;11710;48.024;16.296;2022-07-06T13:24:15;5.80;;;5.30;;
4692;SDS011;11710;48.024;16.296;2022-07-06T13:26:43;6.13;;;5.53;;
4692;SDS011;11710;48.024;16.296;2022-07-06T13:29:11;5.50;;;5.00;;
4692;SDS011;11710;48.024;16.296;2022-07-06T13:31:39;5.60;;;5.13;;
4692;SDS011;11710;48.024;16.296;2022-07-06T13:34:07;5.60;;;5.20;;
4692;SDS011;11710;48.024;16.296;2022-07-06T13:36:35;5.87;;;5.47;;
4692;SDS011;11710;48.024;16.296;2022-07-06T13:39:04;5.30;;;4.90;;
4692;SDS011;11710;48.024;16.296;2022-07-06T13:41:33;4.53;;;4.00;;
4692;SDS011;11710;48.024;16.296;2022-07-06T13:44:00;4.33;;;3.60;;
4692;SDS011;11710;48.024;16.296;2022-07-06T13:46:28;4.13;;;3.73;;
4692;SDS011;11710;48.024;16.296;2022-07-06T13:48:55;7.23;;;4.40;;
4692;SDS011;11710;48.024;16.296;2022-07-06T13:51:24;8.63;;;5.30;;
4692;SDS011;11710;48.024;16.296;2022-07-06T13:53:53;5.30;;;4.83;;
4692;SDS011;11710;48.024;16.296;2022-07-06T13:56:22;4.80;;;4.40;;
4692;SDS011;11710;48.024;16.296;2022-07-06T13:58:50;4.70;;;4.30;;
4692;SDS011;11710;48.024;16.296;2022-07-06T14:01:17;4.50;;;4.03;;
4692;SDS011;11710;48.024;16.296;2022-07-06T14:03:46;4.80;;;4.40;;
4692;SDS011;11710;48.024;16.296;2022-07-06T14:06:13;4.63;;;4.23;;
4692;SDS011;11710;48.024;16.296;2022-07-06T14:08:42;4.50;;;4.10;;
4692;SDS011;11710;48.024;16.296;2022-07-06T14:14:40;4.50;;;4.20;;
4692;SDS011;11710;48.024;16.296;2022-07-06T14:17:07;5.07;;;4.60;;
4692;SDS011;11710;48.024;16.296;2022-07-06T14:19:34;5.70;;;5.20;;
4692;SDS011;11710;48.024;16.296;2022-07-06T14:22:01;5.30;;;4.90;;
4692;SDS011;11710;48.024;16.296;2022-07-06T14:24:28;4.80;;;4.50;;
4692;SDS011;11710;48.024;16.296;2022-07-06T14:26:55;5.87;;;5.47;;
4692;SDS011;11710;48.024;16.296;2022-07-06T14:29:22;5.93;;;5.43;;
4692;SDS011;11710;48.024;16.296;2022-07-06T14:31:50;6.07;;;5.47;;
4692;SDS011;11710;48.024;16.296;2022-07-06T14:34:17;6.10;;;5.60;;
4692;SDS011;11710;48.024;16.296;2022-07-06T14:36:44;5.93;;;5.43;;
4692;SDS011;11710;48.024;16.296;2022-07-06T14:39:11;5.40;;;5.00;;
4692;SDS011;11710;48.024;16.296;2022-07-06T14:41:38;6.17;;;5.67;;
4692;SDS011;11710;48.024;16.296;2022-07-06T14:44:05;6.00;;;5.50;;
4692;SDS011;11710;48.024;16.296;2022-07-06T14:46:32;6.40;;;5.90;;
4692;SDS011;11710;48.024;16.296;2022-07-06T14:49:01;5.97;;;5.43;;
4692;SDS011;11710;48.024;16.296;2022-07-06T14:51:28;6.40;;;5.80;;
4692;SDS011;11710;48.024;16.296;2022-07-06T14:53:55;6.17;;;5.67;;
4692;SDS011;11710;48.024;16.296;2022-07-06T14:56:22;5.17;;;4.77;;
4692;SDS011;11710;48.024;16.296;2022-07-06T14:58:49;4.83;;;4.30;;
4692;SDS011;11710;48.024;16.296;2022-07-06T15:01:16;5.07;;;4.50;;
4692;SDS011;11710;48.024;16.296;2022-07-06T15:03:43;5.40;;;5.00;;
4692;SDS011;11710;48.024;16.296;2022-07-06T15:06:11;5.77;;;5.27;;
4692;SDS011;11710;48.024;16.296;2022-07-06T15:08:38;5.83;;;4.77;;
4692;SDS011;11710;48.024;16.296;2022-07-06T15:11:05;6.50;;;4.80;;
4692;SDS011;11710;48.024;16.296;2022-07-06T15:13:32;4.10;;;3.80;;
4692;SDS011;11710;48.024;16.296;2022-07-06T15:15:59;5.70;;;5.20;;